sensor_id;sensor_type;location;lat;lon;timestamp;temperature;humidity
25753;DHT22;13600;50.816;4.416;2024-03-23T00:53:39;10.30;99.90
25753;DHT22;13600;50.816;4.416;2024-03-23T00:56:04;10.30;99.90
25753;DHT22;13600;50.816;4.416;2024-03-23T00:58:30;10.30;99.90
25753;DHT22;13600;50.816;4.416;2024-03-23T01:00:56;10.20;99.90
25753;DHT22;13600;50.816;4.416;2024-03-23T01:03:21;10.20;99.90
25753;DHT22;13600;50.816;4.416;2024-03-23T01:05:47;10.20;99.90
25753;DHT22;13600;50.816;4.416;2024-03-23T01:08:14;10.20;99.90
25753;DHT22;13600;50.816;4.416;2024-03-23T01:10:40;10.20;99.90
25753;DHT22;13600;50.816;4.416;2024-03-23T01:13:06;10.10;99.90
25753;DHT22;13600;50.816;4.416;2024-03-23T01:15:32;10.00;99.90
25753;DHT22;13600;50.816;4.416;2024-03-23T01:17:57;10.10;99.90
25753;DHT22;13600;50.816;4.416;2024-03-23T01:20:23;10.10;99.90
25753;DHT22;13600;50.816;4.416;2024-03-23T01:22:49;10.10;99.90
25753;DHT22;13600;50.816;4.416;2024-03-23T01:25:14;10.10;99.90
25753;DHT22;13600;50.816;4.416;2024-03-23T01:27:40;9.90;99.90
25753;DHT22;13600;50.816;4.416;2024-03-23T01:30:06;9.80;99.90
25753;DHT22;13600;50.816;4.416;2024-03-23T01:32:33;9.80;99.90
25753;DHT22;13600;50.816;4.416;2024-03-23T01:34:58;9.70;99.90
25753;DHT22;13600;50.816;4.416;2024-03-23T01:37:24;9.70;99.90
25753;DHT22;13600;50.816;4.416;2024-03-23T01:39:50;9.70;99.90
25753;DHT22;13600;50.816;4.416;2024-03-23T01:42:16;9.70;99.90
25753;DHT22;13600;50.816;4.416;2024-03-23T01:44:42;9.60;99.90
25753;DHT22;13600;50.816;4.416;2024-03-23T01:47:07;9.50;99.90
25753;DHT22;13600;50.816;4.416;2024-03-23T01:49:33;9.50;99.90
25753;DHT22;13600;50.816;4.416;2024-03-23T01:52:00;9.50;99.90
25753;DHT22;13600;50.816;4.416;2024-03-23T01:54:26;9.70;99.90
25753;DHT22;13600;50.816;4.416;2024-03-23T01:56:51;9.60;99.90
25753;DHT22;13600;50.816;4.416;2024-03-23T01:59:17;9.50;99.90
25753;DHT22;13600;50.816;4.416;2024-03-23T02:01:43;9.40;99.90
25753;DHT22;13600;50.816;4.416;2024-03-23T02:04:08;9.50;99.90
25753;DHT22;13600;50.816;4.416;2024-03-23T02:06:35;9.60;99.90
25753;DHT22;13600;50.816;4.416;2024-03-23T02:09:01;9.70;99.90
25753;DHT22;13600;50.816;4.416;2024-03-23T02:11:26;9.80;99.90
25753;DHT22;13600;50.816;4.416;2024-03-23T02:13:52;9.80;99.90
25753;DHT22;13600;50.816;4.416;2024-03-23T02:16:18;9.80;99.90
25753;DHT22;13600;50.816;4.416;2024-03-23T02:18:44;9.60;99.90
25753;DHT22;13600;50.816;4.416;2024-03-23T02:21:09;9.60;99.90
25753;DHT22;13600;50.816;4.416;2024-03-23T02:23:35;9.50;99.90
25753;DHT22;13600;50.816;4.416;2024-03-23T02:26:01;9.50;99.90
25753;DHT22;13600;50.816;4.416;2024-03-23T02:28:27;9.50;99.90
25753;DHT22;13600;50.816;4.416;2024-03-23T02:30:52;9.50;99.90
25753;DHT22;13600;50.816;4.416;2024-03-23T02:33:18;9.50;99.90
25753;DHT22;13600;50.816;4.416;2024-03-23T02:35:45;9.60;99.90
25753;DHT22;13600;50.816;4.416;2024-03-23T02:38:10;9.50;99.90
25753;DHT22;13600;50.816;4.416;2024-03-23T02:40:36;9.50;99.90
25753;DHT22;13600;50.816;4.416;2024-03-23T02:43:05;9.50;99.90
25753;DHT22;13600;50.816;4.416;2024-03-23T02:45:31;9.50;99.90
25753;DHT22;13600;50.816;4.416;2024-03-23T02:47:57;9.50;99.90
25753;DHT22;13600;50.816;4.416;2024-03-23T02:50:23;9.50;99.90
25753;DHT22;13600;50.816;4.416;2024-03-23T02:52:49;9.60;99.90
25753;DHT22;13600;50.816;4.416;2024-03-23T02:55:14;9.50;99.90
25753;DHT22;13600;50.816;4.416;2024-03-23T02:57:41;9.50;99.90
25753;DHT22;13600;50.816;4.416;2024-03-23T03:00:07;9.60;99.90
25753;DHT22;13600;50.816;4.416;2024-03-23T03:02:33;9.60;99.90
25753;DHT22;13600;50.816;4.416;2024-03-23T03:04:59;9.60;99.90
25753;DHT22;13600;50.816;4.416;2024-03-23T03:07:24;9.60;99.90
25753;DHT22;13600;50.816;4.416;2024-03-23T03:09:50;9.70;99.90
25753;DHT22;13600;50.816;4.416;2024-03-23T03:12:16;9.70;99.90
25753;DHT22;13600;50.816;4.416;2024-03-23T03:14:42;9.70;99.90
25753;DHT22;13600;50.816;4.416;2024-03-23T03:17:08;9.70;99.90
25753;DHT22;13600;50.816;4.416;2024-03-23T03:19:34;9.70;99.90
25753;DHT22;13600;50.816;4.416;2024-03-23T03:22:00;9.60;99.90
25753;DHT22;13600;50.816;4.416;2024-03-23T03:24:25;9.60;99.90
25753;DHT22;13600;50.816;4.416;2024-03-23T03:26:51;9.70;99.90
25753;DHT22;13600;50.816;4.416;2024-03-23T03:29:17;9.70;99.90
25753;DHT22;13600;50.816;4.416;2024-03-23T03:31:43;9.60;99.90
25753;DHT22;13600;50.816;4.416;2024-03-23T03:34:09;9.60;99.90
25753;DHT22;13600;50.816;4.416;2024-03-23T03:36:34;9.60;99.90
25753;DHT22;13600;50.816;4.416;2024-03-23T03:39:01;9.60;99.90
25753;DHT22;13600;50.816;4.416;2024-03-23T03:41:29;9.60;99.90
25753;DHT22;13600;50.816;4.416;2024-03-23T03:43:55;9.60;99.90
25753;DHT22;13600;50.816;4.416;2024-03-23T03:46:21;9.50;99.90
25753;DHT22;13600;50.816;4.416;2024-03-23T03:48:46;9.40;99.90
25753;DHT22;13600;50.816;4.416;2024-03-23T03:51:14;9.50;99.90
25753;DHT22;13600;50.816;4.416;2024-03-23T03:53:39;9.40;99.90
25753;DHT22;13600;50.816;4.416;2024-03-23T03:56:05;9.30;99.90
25753;DHT22;13600;50.816;4.416;2024-03-23T03:58:31;9.30;99.90
25753;DHT22;13600;50.816;4.416;2024-03-23T04:00:56;9.20;99.90
25753;DHT22;13600;50.816;4.416;2024-03-23T04:03:22;9.20;99.90
25753;DHT22;13600;50.816;4.416;2024-03-23T04:05:55;9.20;99.90
25753;DHT22;13600;50.816;4.416;2024-03-23T04:08:21;9.20;99.90
25753;DHT22;13600;50.816;4.416;2024-03-23T04:10:47;9.30;99.90
25753;DHT22;13600;50.816;4.416;2024-03-23T04:13:13;9.30;99.90
25753;DHT22;13600;50.816;4.416;2024-03-23T04:15:39;9.40;99.90
25753;DHT22;13600;50.816;4.416;2024-03-23T04:18:08;9.50;99.90
25753;DHT22;13600;50.816;4.416;2024-03-23T04:20:35;9.50;99.90
25753;DHT22;13600;50.816;4.416;2024-03-23T04:23:02;9.50;99.90
25753;DHT22;13600;50.816;4.416;2024-03-23T04:25:27;9.50;99.90
25753;DHT22;13600;50.816;4.416;2024-03-23T04:27:54;9.50;99.90
25753;DHT22;13600;50.816;4.416;2024-03-23T04:30:20;9.50;99.90
25753;DHT22;13600;50.816;4.416;2024-03-23T04:32:47;9.50;99.90
25753;DHT22;13600;50.816;4.416;2024-03-23T04:35:13;9.60;99.90
25753;DHT22;13600;50.816;4.416;2024-03-23T04:37:41;9.50;99.90
25753;DHT22;13600;50.816;4.416;2024-03-23T04:40:09;9.50;99.90
25753;DHT22;13600;50.816;4.416;2024-03-23T04:42:38;9.50;99.90
25753;DHT22;13600;50.816;4.416;2024-03-23T04:45:05;9.50;99.90
25753;DHT22;13600;50.816;4.416;2024-03-23T04:47:31;9.40;99.90
25753;DHT22;13600;50.816;4.416;2024-03-23T04:49:57;9.30;99.90
25753;DHT22;13600;50.816;4.416;2024-03-23T04:52:24;9.30;99.90
25753;DHT22;13600;50.816;4.416;2024-03-23T04:54:51;9.40;99.90
25753;DHT22;13600;50.816;4.416;2024-03-23T04:57:16;9.40;99.90
25753;DHT22;13600;50.816;4.416;2024-03-23T04:59:53;9.40;99.90
25753;DHT22;13600;50.816;4.416;2024-03-23T05:02:22;9.30;99.90
25753;DHT22;13600;50.816;4.416;2024-03-23T05:04:48;9.20;99.90
25753;DHT22;13600;50.816;4.416;2024-03-23T05:07:13;9.10;99.90
25753;DHT22;13600;50.816;4.416;2024-03-23T05:09:39;8.90;99.90
25753;DHT22;13600;50.816;4.416;2024-03-23T05:12:05;8.90;99.90
25753;DHT22;13600;50.816;4.416;2024-03-23T05:14:31;8.90;99.90
25753;DHT22;13600;50.816;4.416;2024-03-23T05:16:57;8.90;99.90
25753;DHT22;13600;50.816;4.416;2024-03-23T05:19:22;8.90;99.90
25753;DHT22;13600;50.816;4.416;2024-03-23T05:21:48;8.90;99.90
25753;DHT22;13600;50.816;4.416;2024-03-23T05:24:14;8.90;99.90
25753;DHT22;13600;50.816;4.416;2024-03-23T05:26:39;9.00;99.90
25753;DHT22;13600;50.816;4.416;2024-03-23T05:29:05;9.10;99.90
25753;DHT22;13600;50.816;4.416;2024-03-23T05:31:32;9.10;99.90
25753;DHT22;13600;50.816;4.416;2024-03-23T05:33:58;9.10;99.90
25753;DHT22;13600;50.816;4.416;2024-03-23T05:36:23;9.10;99.90
25753;DHT22;13600;50.816;4.416;2024-03-23T05:38:51;9.00;99.90
25753;DHT22;13600;50.816;4.416;2024-03-23T05:41:17;8.90;99.90
25753;DHT22;13600;50.816;4.416;2024-03-23T05:43:43;8.90;99.90
25753;DHT22;13600;50.816;4.416;2024-03-23T05:46:09;8.90;99.90
25753;DHT22;13600;50.816;4.416;2024-03-23T05:48:35;9.00;99.90
25753;DHT22;13600;50.816;4.416;2024-03-23T05:51:01;9.00;99.90
25753;DHT22;13600;50.816;4.416;2024-03-23T05:53:27;8.90;99.90
25753;DHT22;13600;50.816;4.416;2024-03-23T05:56:04;8.90;99.90
25753;DHT22;13600;50.816;4.416;2024-03-23T05:58:30;8.90;99.90
25753;DHT22;13600;50.816;4.416;2024-03-23T06:01:00;8.90;99.90
25753;DHT22;13600;50.816;4.416;2024-03-23T06:03:30;8.80;99.90
25753;DHT22;13600;50.816;4.416;2024-03-23T06:05:56;8.70;99.90
25753;DHT22;13600;50.816;4.416;2024-03-23T06:08:22;8.70;99.90
25753;DHT22;13600;50.816;4.416;2024-03-23T06:10:48;8.70;99.90
25753;DHT22;13600;50.816;4.416;2024-03-23T06:13:14;8.90;99.90
25753;DHT22;13600;50.816;4.416;2024-03-23T06:15:40;8.90;99.90
25753;DHT22;13600;50.816;4.416;2024-03-23T06:18:06;9.10;99.90
25753;DHT22;13600;50.816;4.416;2024-03-23T06:20:33;9.00;99.90
25753;DHT22;13600;50.816;4.416;2024-03-23T06:23:00;9.00;99.90
25753;DHT22;13600;50.816;4.416;2024-03-23T06:25:26;9.10;99.90
25753;DHT22;13600;50.816;4.416;2024-03-23T06:27:51;9.30;99.90
25753;DHT22;13600;50.816;4.416;2024-03-23T06:30:17;9.20;99.90
25753;DHT22;13600;50.816;4.416;2024-03-23T06:32:43;9.30;99.90
25753;DHT22;13600;50.816;4.416;2024-03-23T06:35:08;9.30;99.90
25753;DHT22;13600;50.816;4.416;2024-03-23T06:37:37;9.10;99.90
25753;DHT22;13600;50.816;4.416;2024-03-23T06:40:05;9.20;99.90
25753;DHT22;13600;50.816;4.416;2024-03-23T06:42:34;9.20;99.90
25753;DHT22;13600;50.816;4.416;2024-03-23T06:44:59;9.20;99.90
25753;DHT22;13600;50.816;4.416;2024-03-23T06:47:25;9.30;99.90
25753;DHT22;13600;50.816;4.416;2024-03-23T06:49:51;9.30;99.90
25753;DHT22;13600;50.816;4.416;2024-03-23T06:52:17;9.20;99.90
25753;DHT22;13600;50.816;4.416;2024-03-23T06:54:43;9.20;99.90
25753;DHT22;13600;50.816;4.416;2024-03-23T06:57:11;9.20;99.90
25753;DHT22;13600;50.816;4.416;2024-03-23T06:59:37;9.20;99.90
25753;DHT22;13600;50.816;4.416;2024-03-23T07:02:05;9.20;99.90
25753;DHT22;13600;50.816;4.416;2024-03-23T07:04:31;9.30;99.90
25753;DHT22;13600;50.816;4.416;2024-03-23T07:06:57;9.30;99.90
25753;DHT22;13600;50.816;4.416;2024-03-23T07:09:30;9.40;99.90
25753;DHT22;13600;50.816;4.416;2024-03-23T07:11:59;9.60;99.90
25753;DHT22;13600;50.816;4.416;2024-03-23T07:14:25;9.70;99.90
25753;DHT22;13600;50.816;4.416;2024-03-23T07:16:51;9.70;99.90
25753;DHT22;13600;50.816;4.416;2024-03-23T07:19:17;9.70;99.90
25753;DHT22;13600;50.816;4.416;2024-03-23T07:21:44;9.40;99.90
25753;DHT22;13600;50.816;4.416;2024-03-23T07:24:10;9.00;99.90
25753;DHT22;13600;50.816;4.416;2024-03-23T07:26:36;8.70;99.90
25753;DHT22;13600;50.816;4.416;2024-03-23T07:29:06;8.50;99.90
25753;DHT22;13600;50.816;4.416;2024-03-23T07:31:35;8.40;99.90
25753;DHT22;13600;50.816;4.416;2024-03-23T07:34:03;8.40;99.90
25753;DHT22;13600;50.816;4.416;2024-03-23T07:36:28;8.50;99.90
25753;DHT22;13600;50.816;4.416;2024-03-23T07:38:54;8.80;99.90
25753;DHT22;13600;50.816;4.416;2024-03-23T07:41:20;8.90;99.90
25753;DHT22;13600;50.816;4.416;2024-03-23T07:43:47;9.10;99.90
25753;DHT22;13600;50.816;4.416;2024-03-23T07:46:15;9.20;99.90
25753;DHT22;13600;50.816;4.416;2024-03-23T07:48:42;9.40;99.90
25753;DHT22;13600;50.816;4.416;2024-03-23T07:51:10;9.70;99.90
25753;DHT22;13600;50.816;4.416;2024-03-23T07:53:36;9.80;99.90
25753;DHT22;13600;50.816;4.416;2024-03-23T07:56:06;9.90;99.90
25753;DHT22;13600;50.816;4.416;2024-03-23T07:58:34;9.90;99.90
25753;DHT22;13600;50.816;4.416;2024-03-23T08:01:16;10.00;99.90
25753;DHT22;13600;50.816;4.416;2024-03-23T08:03:44;10.10;99.90
25753;DHT22;13600;50.816;4.416;2024-03-23T08:06:14;10.20;99.90
25753;DHT22;13600;50.816;4.416;2024-03-23T08:08:42;10.30;99.90
25753;DHT22;13600;50.816;4.416;2024-03-23T08:11:07;10.50;99.90
25753;DHT22;13600;50.816;4.416;2024-03-23T08:13:34;10.60;99.90
25753;DHT22;13600;50.816;4.416;2024-03-23T08:16:01;10.80;99.90
25753;DHT22;13600;50.816;4.416;2024-03-23T08:18:27;10.70;99.90
25753;DHT22;13600;50.816;4.416;2024-03-23T08:21:04;10.90;99.90
25753;DHT22;13600;50.816;4.416;2024-03-23T08:23:31;10.50;99.90
25753;DHT22;13600;50.816;4.416;2024-03-23T08:26:08;10.40;99.90
25753;DHT22;13600;50.816;4.416;2024-03-23T08:28:35;10.40;99.90
25753;DHT22;13600;50.816;4.416;2024-03-23T08:31:03;10.30;99.90
25753;DHT22;13600;50.816;4.416;2024-03-23T08:33:29;10.60;99.90
25753;DHT22;13600;50.816;4.416;2024-03-23T08:38:23;10.80;99.90
25753;DHT22;13600;50.816;4.416;2024-03-23T08:40:59;10.80;99.90
25753;DHT22;13600;50.816;4.416;2024-03-23T08:43:26;10.80;99.90
25753;DHT22;13600;50.816;4.416;2024-03-23T08:45:52;10.80;99.90
25753;DHT22;13600;50.816;4.416;2024-03-23T08:48:21;10.70;99.90
25753;DHT22;13600;50.816;4.416;2024-03-23T08:50:47;10.70;99.90
25753;DHT22;13600;50.816;4.416;2024-03-23T08:53:23;10.70;99.90
25753;DHT22;13600;50.816;4.416;2024-03-23T08:55:55;10.80;99.90
25753;DHT22;13600;50.816;4.416;2024-03-23T08:58:25;10.90;99.90
25753;DHT22;13600;50.816;4.416;2024-03-23T09:00:52;10.80;99.90
25753;DHT22;13600;50.816;4.416;2024-03-23T09:03:18;11.00;99.90
25753;DHT22;13600;50.816;4.416;2024-03-23T09:05:44;11.10;99.90
25753;DHT22;13600;50.816;4.416;2024-03-23T09:08:11;11.00;99.90
25753;DHT22;13600;50.816;4.416;2024-03-23T09:10:39;11.50;99.90
25753;DHT22;13600;50.816;4.416;2024-03-23T09:13:06;11.80;99.90
25753;DHT22;13600;50.816;4.416;2024-03-23T09:15:35;12.30;99.90
25753;DHT22;13600;50.816;4.416;2024-03-23T09:18:02;12.30;99.90
25753;DHT22;13600;50.816;4.416;2024-03-23T09:20:28;12.30;99.90
25753;DHT22;13600;50.816;4.416;2024-03-23T09:22:54;14.20;99.90
25753;DHT22;13600;50.816;4.416;2024-03-23T09:25:20;14.90;99.90
25753;DHT22;13600;50.816;4.416;2024-03-23T09:27:47;14.70;99.90
25753;DHT22;13600;50.816;4.416;2024-03-23T09:30:13;14.60;99.90
25753;DHT22;13600;50.816;4.416;2024-03-23T09:32:41;15.40;99.90
25753;DHT22;13600;50.816;4.416;2024-03-23T09:35:07;17.10;99.90
25753;DHT22;13600;50.816;4.416;2024-03-23T09:37:33;19.10;99.90
25753;DHT22;13600;50.816;4.416;2024-03-23T09:39:58;19.10;99.90
25753;DHT22;13600;50.816;4.416;2024-03-23T09:42:24;18.90;99.90
25753;DHT22;13600;50.816;4.416;2024-03-23T09:44:51;18.90;99.90
25753;DHT22;13600;50.816;4.416;2024-03-23T09:47:17;18.80;99.90
25753;DHT22;13600;50.816;4.416;2024-03-23T09:49:44;20.10;99.90
25753;DHT22;13600;50.816;4.416;2024-03-23T09:52:10;21.60;98.70
25753;DHT22;13600;50.816;4.416;2024-03-23T09:54:36;22.80;94.40
25753;DHT22;13600;50.816;4.416;2024-03-23T09:57:01;23.80;90.80
25753;DHT22;13600;50.816;4.416;2024-03-23T09:59:29;24.70;82.90
25753;DHT22;13600;50.816;4.416;2024-03-23T10:01:55;24.10;83.60
25753;DHT22;13600;50.816;4.416;2024-03-23T10:04:37;23.10;80.70
25753;DHT22;13600;50.816;4.416;2024-03-23T10:07:19;21.70;82.30
25753;DHT22;13600;50.816;4.416;2024-03-23T10:09:45;22.10;79.80
25753;DHT22;13600;50.816;4.416;2024-03-23T10:12:14;22.00;80.40
25753;DHT22;13600;50.816;4.416;2024-03-23T10:14:42;22.80;79.00
25753;DHT22;13600;50.816;4.416;2024-03-23T10:17:20;24.00;78.30
25753;DHT22;13600;50.816;4.416;2024-03-23T10:19:52;24.80;75.40
25753;DHT22;13600;50.816;4.416;2024-03-23T10:22:21;23.70;75.20
25753;DHT22;13600;50.816;4.416;2024-03-23T10:24:49;22.00;75.20
25753;DHT22;13600;50.816;4.416;2024-03-23T10:27:19;19.10;80.70
25753;DHT22;13600;50.816;4.416;2024-03-23T10:29:49;17.10;90.50
25753;DHT22;13600;50.816;4.416;2024-03-23T10:32:16;15.80;92.80
25753;DHT22;13600;50.816;4.416;2024-03-23T10:34:45;15.00;97.60
25753;DHT22;13600;50.816;4.416;2024-03-23T10:37:11;16.40;99.90
25753;DHT22;13600;50.816;4.416;2024-03-23T10:39:38;16.70;96.70
25753;DHT22;13600;50.816;4.416;2024-03-23T10:42:08;16.80;98.80
25753;DHT22;13600;50.816;4.416;2024-03-23T10:44:36;19.00;96.10
25753;DHT22;13600;50.816;4.416;2024-03-23T10:47:03;21.40;91.10
25753;DHT22;13600;50.816;4.416;2024-03-23T10:49:35;23.10;83.30
25753;DHT22;13600;50.816;4.416;2024-03-23T10:52:03;24.30;77.10
25753;DHT22;13600;50.816;4.416;2024-03-23T10:54:30;24.50;73.20
25753;DHT22;13600;50.816;4.416;2024-03-23T10:57:03;23.70;71.00
25753;DHT22;13600;50.816;4.416;2024-03-23T10:59:30;23.30;70.60
25753;DHT22;13600;50.816;4.416;2024-03-23T11:01:57;24.00;69.40
25753;DHT22;13600;50.816;4.416;2024-03-23T11:04:49;23.20;69.90
25753;DHT22;13600;50.816;4.416;2024-03-23T11:09:50;20.10;74.90
25753;DHT22;13600;50.816;4.416;2024-03-23T11:12:27;19.00;79.50
25753;DHT22;13600;50.816;4.416;2024-03-23T11:17:23;19.30;78.40
25753;DHT22;13600;50.816;4.416;2024-03-23T11:19:58;19.30;81.50
25753;DHT22;13600;50.816;4.416;2024-03-23T11:22:41;20.50;76.00
25753;DHT22;13600;50.816;4.416;2024-03-23T11:25:16;19.80;79.10
25753;DHT22;13600;50.816;4.416;2024-03-23T11:27:46;18.00;78.90
25753;DHT22;13600;50.816;4.416;2024-03-23T11:30:16;17.00;83.00
25753;DHT22;13600;50.816;4.416;2024-03-23T11:32:43;16.50;86.80
25753;DHT22;13600;50.816;4.416;2024-03-23T11:35:09;15.90;88.00
25753;DHT22;13600;50.816;4.416;2024-03-23T11:37:36;15.90;89.70
25753;DHT22;13600;50.816;4.416;2024-03-23T11:40:17;16.00;90.20
25753;DHT22;13600;50.816;4.416;2024-03-23T11:42:44;15.30;90.50
25753;DHT22;13600;50.816;4.416;2024-03-23T11:45:10;15.90;91.00
25753;DHT22;13600;50.816;4.416;2024-03-23T11:47:37;19.00;87.20
25753;DHT22;13600;50.816;4.416;2024-03-23T11:50:03;20.50;81.40
25753;DHT22;13600;50.816;4.416;2024-03-23T11:52:29;19.60;80.10
25753;DHT22;13600;50.816;4.416;2024-03-23T11:55:05;19.70;80.00
25753;DHT22;13600;50.816;4.416;2024-03-23T11:57:33;19.50;78.70
25753;DHT22;13600;50.816;4.416;2024-03-23T11:59:59;19.70;80.00
25753;DHT22;13600;50.816;4.416;2024-03-23T12:02:25;18.70;78.90
25753;DHT22;13600;50.816;4.416;2024-03-23T12:04:50;17.90;82.90
25753;DHT22;13600;50.816;4.416;2024-03-23T12:07:18;17.20;87.20
25753;DHT22;13600;50.816;4.416;2024-03-23T12:09:45;16.90;89.60
25753;DHT22;13600;50.816;4.416;2024-03-23T12:12:16;16.70;90.70
25753;DHT22;13600;50.816;4.416;2024-03-23T12:15:04;16.10;90.80
25753;DHT22;13600;50.816;4.416;2024-03-23T12:17:31;15.50;92.90
25753;DHT22;13600;50.816;4.416;2024-03-23T12:19:57;15.20;95.30
25753;DHT22;13600;50.816;4.416;2024-03-23T12:22:24;15.00;96.20
25753;DHT22;13600;50.816;4.416;2024-03-23T12:24:50;15.10;96.90
25753;DHT22;13600;50.816;4.416;2024-03-23T12:27:16;15.10;95.60
25753;DHT22;13600;50.816;4.416;2024-03-23T12:29:42;14.40;97.90
25753;DHT22;13600;50.816;4.416;2024-03-23T12:32:09;13.90;99.90
25753;DHT22;13600;50.816;4.416;2024-03-23T12:34:34;13.80;99.90
25753;DHT22;13600;50.816;4.416;2024-03-23T12:37:00;13.20;99.90
25753;DHT22;13600;50.816;4.416;2024-03-23T12:39:27;12.60;99.90
25753;DHT22;13600;50.816;4.416;2024-03-23T12:41:59;12.50;99.90
25753;DHT22;13600;50.816;4.416;2024-03-23T12:44:28;13.60;99.90
25753;DHT22;13600;50.816;4.416;2024-03-23T12:46:54;15.90;99.90
25753;DHT22;13600;50.816;4.416;2024-03-23T12:49:20;18.00;99.60
25753;DHT22;13600;50.816;4.416;2024-03-23T12:51:56;21.00;95.10
25753;DHT22;13600;50.816;4.416;2024-03-23T12:54:22;22.00;81.80
25753;DHT22;13600;50.816;4.416;2024-03-23T12:56:48;22.70;80.70
25753;DHT22;13600;50.816;4.416;2024-03-23T12:59:14;23.40;79.30
25753;DHT22;13600;50.816;4.416;2024-03-23T13:01:39;23.50;73.00
25753;DHT22;13600;50.816;4.416;2024-03-23T13:04:07;23.70;73.00
25753;DHT22;13600;50.816;4.416;2024-03-23T13:06:33;23.90;74.00
25753;DHT22;13600;50.816;4.416;2024-03-23T13:09:01;24.70;73.20
25753;DHT22;13600;50.816;4.416;2024-03-23T13:11:27;25.20;65.00
25753;DHT22;13600;50.816;4.416;2024-03-23T13:13:54;25.70;66.80
25753;DHT22;13600;50.816;4.416;2024-03-23T13:16:20;25.30;61.10
25753;DHT22;13600;50.816;4.416;2024-03-23T13:18:45;25.20;60.40
25753;DHT22;13600;50.816;4.416;2024-03-23T13:21:11;24.40;62.60
25753;DHT22;13600;50.816;4.416;2024-03-23T13:23:36;23.40;60.70
25753;DHT22;13600;50.816;4.416;2024-03-23T13:26:03;22.50;65.30
25753;DHT22;13600;50.816;4.416;2024-03-23T13:28:29;21.80;64.60
25753;DHT22;13600;50.816;4.416;2024-03-23T13:30:56;21.00;66.40
25753;DHT22;13600;50.816;4.416;2024-03-23T13:33:23;21.70;65.70
25753;DHT22;13600;50.816;4.416;2024-03-23T13:35:53;22.30;66.40
25753;DHT22;13600;50.816;4.416;2024-03-23T13:38:19;22.70;65.80
25753;DHT22;13600;50.816;4.416;2024-03-23T13:40:56;23.40;64.30
25753;DHT22;13600;50.816;4.416;2024-03-23T13:43:23;24.40;60.00
25753;DHT22;13600;50.816;4.416;2024-03-23T13:45:51;24.20;60.20
25753;DHT22;13600;50.816;4.416;2024-03-23T13:48:20;24.70;60.50
25753;DHT22;13600;50.816;4.416;2024-03-23T13:50:46;23.70;58.50
25753;DHT22;13600;50.816;4.416;2024-03-23T13:53:14;22.60;59.50
25753;DHT22;13600;50.816;4.416;2024-03-23T13:55:47;21.60;63.80
25753;DHT22;13600;50.816;4.416;2024-03-23T13:58:15;20.90;65.40
25753;DHT22;13600;50.816;4.416;2024-03-23T14:00:41;21.20;67.90
25753;DHT22;13600;50.816;4.416;2024-03-23T14:03:10;22.00;66.20
25753;DHT22;13600;50.816;4.416;2024-03-23T14:05:37;22.10;63.60
25753;DHT22;13600;50.816;4.416;2024-03-23T14:08:09;21.50;65.60
25753;DHT22;13600;50.816;4.416;2024-03-23T14:10:36;22.10;67.30
25753;DHT22;13600;50.816;4.416;2024-03-23T14:13:03;21.30;63.90
25753;DHT22;13600;50.816;4.416;2024-03-23T14:15:29;21.40;65.00
25753;DHT22;13600;50.816;4.416;2024-03-23T14:17:55;21.20;66.90
25753;DHT22;13600;50.816;4.416;2024-03-23T14:20:22;21.30;65.80
25753;DHT22;13600;50.816;4.416;2024-03-23T14:22:51;22.00;66.00
25753;DHT22;13600;50.816;4.416;2024-03-23T14:25:16;22.80;63.60
25753;DHT22;13600;50.816;4.416;2024-03-23T14:27:46;22.40;63.20
25753;DHT22;13600;50.816;4.416;2024-03-23T14:30:12;22.40;63.20
25753;DHT22;13600;50.816;4.416;2024-03-23T14:32:39;22.50;61.90
25753;DHT22;13600;50.816;4.416;2024-03-23T14:35:06;22.40;62.90
25753;DHT22;13600;50.816;4.416;2024-03-23T14:37:38;22.60;64.50
25753;DHT22;13600;50.816;4.416;2024-03-23T14:40:05;22.90;63.30
25753;DHT22;13600;50.816;4.416;2024-03-23T14:42:31;22.60;63.80
25753;DHT22;13600;50.816;4.416;2024-03-23T14:44:58;22.70;64.50
25753;DHT22;13600;50.816;4.416;2024-03-23T14:47:24;23.00;63.70
25753;DHT22;13600;50.816;4.416;2024-03-23T14:49:49;23.30;63.60
25753;DHT22;13600;50.816;4.416;2024-03-23T14:52:18;23.10;62.40
25753;DHT22;13600;50.816;4.416;2024-03-23T14:54:45;22.20;63.20
25753;DHT22;13600;50.816;4.416;2024-03-23T14:57:11;22.60;65.80
25753;DHT22;13600;50.816;4.416;2024-03-23T14:59:37;22.60;63.30
25753;DHT22;13600;50.816;4.416;2024-03-23T15:02:09;22.40;64.00
25753;DHT22;13600;50.816;4.416;2024-03-23T15:04:35;22.20;65.20
25753;DHT22;13600;50.816;4.416;2024-03-23T15:07:01;22.20;64.20
25753;DHT22;13600;50.816;4.416;2024-03-23T15:09:26;21.30;66.30
25753;DHT22;13600;50.816;4.416;2024-03-23T15:11:52;21.30;67.80
25753;DHT22;13600;50.816;4.416;2024-03-23T15:14:21;21.40;66.90
25753;DHT22;13600;50.816;4.416;2024-03-23T15:16:48;20.70;68.30
25753;DHT22;13600;50.816;4.416;2024-03-23T15:19:15;20.50;67.20
25753;DHT22;13600;50.816;4.416;2024-03-23T15:21:44;20.40;69.20
25753;DHT22;13600;50.816;4.416;2024-03-23T15:24:10;20.60;67.90
25753;DHT22;13600;50.816;4.416;2024-03-23T15:26:37;20.60;67.20
25753;DHT22;13600;50.816;4.416;2024-03-23T15:29:02;20.40;67.80
25753;DHT22;13600;50.816;4.416;2024-03-23T15:31:28;20.30;68.40
25753;DHT22;13600;50.816;4.416;2024-03-23T15:33:56;20.20;68.90
25753;DHT22;13600;50.816;4.416;2024-03-23T15:36:22;19.70;69.20
25753;DHT22;13600;50.816;4.416;2024-03-23T15:38:48;19.40;69.80
25753;DHT22;13600;50.816;4.416;2024-03-23T15:41:14;18.50;70.70
25753;DHT22;13600;50.816;4.416;2024-03-23T15:43:40;17.80;73.40
25753;DHT22;13600;50.816;4.416;2024-03-23T15:46:07;17.20;75.40
25753;DHT22;13600;50.816;4.416;2024-03-23T15:48:33;17.30;76.90
25753;DHT22;13600;50.816;4.416;2024-03-23T15:51:01;17.50;75.70
25753;DHT22;13600;50.816;4.416;2024-03-23T15:53:29;18.00;75.60
25753;DHT22;13600;50.816;4.416;2024-03-23T15:56:00;18.70;75.70
25753;DHT22;13600;50.816;4.416;2024-03-23T15:58:27;19.00;72.90
25753;DHT22;13600;50.816;4.416;2024-03-23T16:01:04;19.80;72.80
25753;DHT22;13600;50.816;4.416;2024-03-23T16:03:32;20.10;71.30
25753;DHT22;13600;50.816;4.416;2024-03-23T16:06:02;19.60;71.30
25753;DHT22;13600;50.816;4.416;2024-03-23T16:08:29;19.40;70.10
25753;DHT22;13600;50.816;4.416;2024-03-23T16:11:02;19.10;67.60
25753;DHT22;13600;50.816;4.416;2024-03-23T16:13:29;18.60;66.50
25753;DHT22;13600;50.816;4.416;2024-03-23T16:16:02;17.80;70.10
25753;DHT22;13600;50.816;4.416;2024-03-23T16:18:34;17.50;71.00
25753;DHT22;13600;50.816;4.416;2024-03-23T16:21:03;17.40;71.10
25753;DHT22;13600;50.816;4.416;2024-03-23T16:23:32;17.00;69.40
25753;DHT22;13600;50.816;4.416;2024-03-23T16:25:58;17.00;69.80
25753;DHT22;13600;50.816;4.416;2024-03-23T16:28:30;16.80;70.70
25753;DHT22;13600;50.816;4.416;2024-03-23T16:31:03;16.40;71.20
25753;DHT22;13600;50.816;4.416;2024-03-23T16:33:30;16.20;73.10
25753;DHT22;13600;50.816;4.416;2024-03-23T16:35:57;15.80;73.80
25753;DHT22;13600;50.816;4.416;2024-03-23T16:38:24;15.60;74.70